Time,TemperatureF,DewpointF,PressureIn,WindDirection,WindDirectionDegrees,WindSpeedMPH,WindSpeedGustMPH,Humidity,HourlyPrecipIn,Conditions,Clouds,dailyrainin,SoftwareType,DateUTC
2013-01-09 00:00:00,27.8,21.8,30.36,SSE,157,0.0,1.0,78,0.00,,,-99.99,WeatherLink 5.7,2013-01-09 05:00:00,
2013-01-09 00:10:00,32.9,24.5,30.35,South,180,0.0,1.0,71,0.00,,,-99.99,WeatherLink 5.7,2013-01-09 05:10:00,
2013-01-09 00:11:00,28.4,21.8,30.36,North,-999,0.0,0.0,76,0.00,,,-99.99,WeatherLink 5.7,2013-01-09 05:11:00,
2013-01-09 00:20:00,31.9,23.2,30.35,North,-999,0.0,1.0,70,0.00,,,-99.99,WeatherLink 5.7,2013-01-09 05:20:00,
2013-01-09 00:21:00,27.9,21.3,30.35,North,-999,0.0,0.0,76,0.00,,,-99.99,WeatherLink 5.7,2013-01-09 05:21:00,
2013-01-09 00:30:00,31.2,22.9,30.35,North,-999,0.0,0.0,71,0.00,,,-99.99,WeatherLink 5.7,2013-01-09 05:30:00,
2013-01-09 00:31:00,27.4,21.1,30.36,North,-999,0.0,0.0,77,0.00,,,-99.99,WeatherLink 5.7,2013-01-09 05:31:00,
2013-01-09 00:40:00,31.0,23.0,30.35,North,-999,0.0,0.0,72,0.00,,,-99.99,WeatherLink 5.7,2013-01-09 05:40:00,
2013-01-09 00:41:00,27.4,21.4,30.36,North,-999,0.0,0.0,78,0.00,,,-99.99,WeatherLink 5.7,2013-01-09 05:41:00,
2013-01-09 00:50:00,30.8,22.8,30.35,North,-999,0.0,0.0,72,0.00,,,-99.99,WeatherLink 5.7,2013-01-09 05:50:00,
2013-01-09 00:51:00,27.0,21.1,30.35,SSE,157,0.0,1.0,78,0.00,,,-99.99,WeatherLink 5.7,2013-01-09 05:51:00,
2013-01-09 01:00:00,30.5,22.5,30.35,North,-999,0.0,0.0,72,0.00,,,-99.99,WeatherLink 5.7,2013-01-09 06:00:00,
2013-01-09 01:01:00,26.5,20.6,30.35,North,-999,0.0,0.0,78,0.00,,,-99.99,WeatherLink 5.7,2013-01-09 06:01:00,
2013-01-09 01:10:00,29.6,22.0,30.35,South,180,0.0,1.0,73,0.00,,,-99.99,WeatherLink 5.7,2013-01-09 06:10:00,
2013-01-09 01:11:00,26.6,20.7,30.35,North,-999,0.0,0.0,78,0.00,,,-99.99,WeatherLink 5.7,2013-01-09 06:11:00,
2013-01-09 01:20:00,29.4,22.5,30.35,South,180,0.0,1.0,75,0.00,,,-99.99,WeatherLink 5.7,2013-01-09 06:20:00,
2013-01-09 01:21:00,26.6,21.0,30.36,North,-999,0.0,0.0,79,0.00,,,-99.99,WeatherLink 5.7,2013-01-09 06:21:00,
2013-01-09 01:30:00,29.5,22.6,30.36,North,-999,0.0,1.0,75,0.00,,,-99.99,WeatherLink 5.7,2013-01-09 06:30:00,
2013-01-09 01:31:00,27.0,21.1,30.35,North,-999,0.0,0.0,78,0.00,,,-99.99,WeatherLink 5.7,2013-01-09 06:31:00,
2013-01-09 01:40:00,29.4,22.5,30.36,North,-999,0.0,1.0,75,0.00,,,-99.99,WeatherLink 5.7,2013-01-09 06:40:00,
2013-01-09 01:41:00,26.8,20.9,30.36,North,-999,0.0,0.0,78,0.00,,,-99.99,WeatherLink 5.7,2013-01-09 06:41:00,
2013-01-09 01:50:00,29.6,22.6,30.35,South,180,0.0,1.0,75,0.00,,,-99.99,WeatherLink 5.7,2013-01-09 06:50:00,
2013-01-09 01:51:00,26.8,20.9,30.35,SSE,157,0.0,1.0,78,0.00,,,-99.99,WeatherLink 5.7,2013-01-09 06:51:00,
2013-01-09 02:00:00,29.5,22.6,30.36,South,180,0.0,2.0,75,0.00,,,-99.99,WeatherLink 5.7,2013-01-09 07:00:00,
2013-01-09 02:01:00,26.5,20.6,30.35,North,-999,0.0,0.0,78,0.00,,,-99.99,WeatherLink 5.7,2013-01-09 07:01:00,
2013-01-09 02:10:00,29.7,22.7,30.36,South,180,0.0,2.0,75,0.00,,,-99.99,WeatherLink 5.7,2013-01-09 07:10:00,
2013-01-09 02:11:00,26.4,20.8,30.36,SSE,157,0.0,2.0,79,0.00,,,-99.99,WeatherLink 5.7,2013-01-09 07:11:00,
2013-01-09 02:20:00,29.5,22.6,30.36,North,-999,0.0,0.0,75,0.00,,,-99.99,WeatherLink 5.7,2013-01-09 07:20:00,
2013-01-09 02:21:00,26.7,20.8,30.35,SSE,157,0.0,2.0,78,0.00,,,-99.99,WeatherLink 5.7,2013-01-09 07:21:00,
2013-01-09 02:30:00,29.0,21.7,30.37,South,180,1.0,3.0,74,0.00,,,-99.99,WeatherLink 5.7,2013-01-09 07:30:00,
2013-01-09 02:31:00,26.0,20.1,30.36,North,-999,0.0,0.0,78,0.00,,,-99.99,WeatherLink 5.7,2013-01-09 07:31:00,
2013-01-09 02:40:00,27.5,20.9,30.36,SSE,157,0.0,2.0,76,0.00,,,-99.99,WeatherLink 5.7,2013-01-09 07:40:00,
2013-01-09 02:41:00,25.7,19.8,30.35,North,-999,0.0,0.0,78,0.00,,,-99.99,WeatherLink 5.7,2013-01-09 07:41:00,
2013-01-09 02:50:00,27.3,21.3,30.36,North,-999,0.0,1.0,78,0.00,,,-99.99,WeatherLink 5.7,2013-01-09 07:50:00,
2013-01-09 02:51:00,25.1,19.2,30.35,SSE,157,0.0,1.0,78,0.00,,,-99.99,WeatherLink 5.7,2013-01-09 07:51:00,
2013-01-09 03:00:00,27.8,21.8,30.36,SSE,157,0.0,1.0,78,0.00,,,-99.99,WeatherLink 5.7,2013-01-09 08:00:00,
2013-01-09 03:01:00,25.1,19.8,30.35,SSE,157,0.0,1.0,80,0.00,,,-99.99,WeatherLink 5.7,2013-01-09 08:01:00,
2013-01-09 03:10:00,28.4,21.8,30.36,North,-999,0.0,0.0,76,0.00,,,-99.99,WeatherLink 5.7,2013-01-09 08:10:00,
2013-01-09 03:11:00,25.1,19.5,30.34,North,-999,0.0,0.0,79,0.00,,,-99.99,WeatherLink 5.7,2013-01-09 08:11:00,
2013-01-09 03:20:00,27.9,21.3,30.35,North,-999,0.0,0.0,76,0.00,,,-99.99,WeatherLink 5.7,2013-01-09 08:20:00,
2013-01-09 03:21:00,24.8,19.2,30.34,SSE,157,0.0,1.0,79,0.00,,,-99.99,WeatherLink 5.7,2013-01-09 08:21:00,
2013-01-09 03:30:00,27.4,21.1,30.36,North,-999,0.0,0.0,77,0.00,,,-99.99,WeatherLink 5.7,2013-01-09 08:30:00,
2013-01-09 03:31:00,24.7,19.4,30.34,SSE,157,0.0,1.0,80,0.00,,,-99.99,WeatherLink 5.7,2013-01-09 08:31:00,
2013-01-09 03:40:00,27.4,21.4,30.36,North,-999,0.0,0.0,78,0.00,,,-99.99,WeatherLink 5.7,2013-01-09 08:40:00,
2013-01-09 03:41:00,25.1,19.8,30.34,North,-999,0.0,0.0,80,0.00,,,-99.99,WeatherLink 5.7,2013-01-09 08:41:00,
2013-01-09 03:50:00,27.0,21.1,30.35,SSE,157,0.0,1.0,78,0.00,,,-99.99,WeatherLink 5.7,2013-01-09 08:50:00,
2013-01-09 03:51:00,25.3,20.0,30.34,North,-999,0.0,0.0,80,0.00,,,-99.99,WeatherLink 5.7,2013-01-09 08:51:00,
2013-01-09 04:00:00,26.5,20.6,30.35,North,-999,0.0,0.0,78,0.00,,,-99.99,WeatherLink 5.7,2013-01-09 09:00:00,
2013-01-09 04:01:00,25.2,19.9,30.33,North,-999,0.0,0.0,80,0.00,,,-99.99,WeatherLink 5.7,2013-01-09 09:01:00,
2013-01-09 04:10:00,26.6,20.7,30.35,North,-999,0.0,0.0,78,0.00,,,-99.99,WeatherLink 5.7,2013-01-09 09:10:00,
2013-01-09 04:11:00,25.1,19.8,30.33,North,-999,0.0,0.0,80,0.00,,,-99.99,WeatherLink 5.7,2013-01-09 09:11:00,
2013-01-09 04:20:00,26.6,21.0,30.36,North,-999,0.0,0.0,79,0.00,,,-99.99,WeatherLink 5.7,2013-01-09 09:20:00,
2013-01-09 04:21:00,24.7,19.4,30.33,North,-999,0.0,0.0,80,0.00,,,-99.99,WeatherLink 5.7,2013-01-09 09:21:00,
2013-01-09 04:30:00,27.0,21.1,30.35,North,-999,0.0,0.0,78,0.00,,,-99.99,WeatherLink 5.7,2013-01-09 09:30:00,
2013-01-09 04:31:00,24.8,19.5,30.33,North,-999,0.0,0.0,80,0.00,,,-99.99,WeatherLink 5.7,2013-01-09 09:31:00,
2013-01-09 04:40:00,26.8,20.9,30.36,North,-999,0.0,0.0,78,0.00,,,-99.99,WeatherLink 5.7,2013-01-09 09:40:00,
2013-01-09 04:41:00,24.6,19.0,30.33,North,-999,0.0,0.0,79,0.00,,,-99.99,WeatherLink 5.7,2013-01-09 09:41:00,
2013-01-09 04:50:00,26.8,20.9,30.35,SSE,157,0.0,1.0,78,0.00,,,-99.99,WeatherLink 5.7,2013-01-09 09:50:00,
2013-01-09 04:51:00,24.5,19.2,30.34,North,-999,0.0,0.0,80,0.00,,,-99.99,WeatherLink 5.7,2013-01-09 09:51:00,
2013-01-09 05:00:00,26.5,20.6,30.35,North,-999,0.0,0.0,78,0.00,,,-99.99,WeatherLink 5.7,2013-01-09 10:00:00,
2013-01-09 05:01:00,24.4,19.1,30.33,North,-999,0.0,0.0,80,0.00,,,-99.99,WeatherLink 5.7,2013-01-09 10:01:00,
2013-01-09 05:10:00,26.4,20.8,30.36,SSE,157,0.0,2.0,79,0.00,,,-99.99,WeatherLink 5.7,2013-01-09 10:10:00,
2013-01-09 05:11:00,24.2,18.9,30.32,SSE,157,0.0,1.0,80,0.00,,,-99.99,WeatherLink 5.7,2013-01-09 10:11:00,
2013-01-09 05:20:00,26.7,20.8,30.35,SSE,157,0.0,2.0,78,0.00,,,-99.99,WeatherLink 5.7,2013-01-09 10:20:00,
2013-01-09 05:21:00,24.0,18.7,30.33,North,-999,0.0,0.0,80,0.00,,,-99.99,WeatherLink 5.7,2013-01-09 10:21:00,
2013-01-09 05:30:00,26.0,20.1,30.36,North,-999,0.0,0.0,78,0.00,,,-99.99,WeatherLink 5.7,2013-01-09 10:30:00,
2013-01-09 05:31:00,24.3,19.3,30.33,North,-999,0.0,0.0,81,0.00,,,-99.99,WeatherLink 5.7,2013-01-09 10:31:00,
2013-01-09 05:40:00,25.7,19.8,30.35,North,-999,0.0,0.0,78,0.00,,,-99.99,WeatherLink 5.7,2013-01-09 10:40:00,
2013-01-09 05:41:00,24.2,18.9,30.32,North,-999,0.0,1.0,80,0.00,,,-99.99,WeatherLink 5.7,2013-01-09 10:41:00,
2013-01-09 05:50:00,25.1,19.2,30.35,SSE,157,0.0,1.0,78,0.00,,,-99.99,WeatherLink 5.7,2013-01-09 10:50:00,
2013-01-09 05:51:00,24.0,19.0,30.33,North,-999,0.0,0.0,81,0.00,,,-99.99,WeatherLink 5.7,2013-01-09 10:51:00,
2013-01-09 06:00:00,25.1,19.8,30.35,SSE,157,0.0,1.0,80,0.00,,,-99.99,WeatherLink 5.7,2013-01-09 11:00:00,
2013-01-09 06:01:00,24.5,19.8,30.33,SSE,157,0.0,1.0,82,0.00,,,-99.99,WeatherLink 5.7,2013-01-09 11:01:00,
2013-01-09 06:10:00,25.1,19.5,30.34,North,-999,0.0,0.0,79,0.00,,,-99.99,WeatherLink 5.7,2013-01-09 11:10:00,
2013-01-09 06:11:00,24.7,20.0,30.33,North,-999,0.0,0.0,82,0.00,,,-99.99,WeatherLink 5.7,2013-01-09 11:11:00,
2013-01-09 06:20:00,24.8,19.2,30.34,SSE,157,0.0,1.0,79,0.00,,,-99.99,WeatherLink 5.7,2013-01-09 11:20:00,
2013-01-09 06:21:00,24.8,19.8,30.33,North,-999,0.0,1.0,81,0.00,,,-99.99,WeatherLink 5.7,2013-01-09 11:21:00,
2013-01-09 06:30:00,24.7,19.4,30.34,SSE,157,0.0,1.0,80,0.00,,,-99.99,WeatherLink 5.7,2013-01-09 11:30:00,
2013-01-09 06:31:00,24.7,19.7,30.33,North,-999,0.0,0.0,81,0.00,,,-99.99,WeatherLink 5.7,2013-01-09 11:31:00,
2013-01-09 06:40:00,25.1,19.8,30.34,North,-999,0.0,0.0,80,0.00,,,-99.99,WeatherLink 5.7,2013-01-09 11:40:00,
2013-01-09 06:41:00,24.6,19.6,30.33,SSE,157,0.0,1.0,81,0.00,,,-99.99,WeatherLink 5.7,2013-01-09 11:41:00,
2013-01-09 06:50:00,25.3,20.0,30.34,North,-999,0.0,0.0,80,0.00,,,-99.99,WeatherLink 5.7,2013-01-09 11:50:00,
2013-01-09 06:51:00,24.2,18.9,30.33,SSE,157,0.0,2.0,80,0.00,,,-99.99,WeatherLink 5.7,2013-01-09 11:51:00,
2013-01-09 07:00:00,25.2,19.9,30.33,North,-999,0.0,0.0,80,0.00,,,-99.99,WeatherLink 5.7,2013-01-09 12:00:00,
2013-01-09 07:01:00,24.2,19.2,30.35,SSE,157,0.0,1.0,81,0.00,,,-99.99,WeatherLink 5.7,2013-01-09 12:01:00,
2013-01-09 07:10:00,25.1,19.8,30.33,North,-999,0.0,0.0,80,0.00,,,-99.99,WeatherLink 5.7,2013-01-09 12:10:00,
2013-01-09 07:11:00,24.4,19.4,30.35,SSE,157,0.0,2.0,81,0.00,,,-99.99,WeatherLink 5.7,2013-01-09 12:11:00,
2013-01-09 07:20:00,24.7,19.4,30.33,North,-999,0.0,0.0,80,0.00,,,-99.99,WeatherLink 5.7,2013-01-09 12:20:00,
2013-01-09 07:21:00,24.8,19.5,30.34,SSE,157,0.0,3.0,80,0.00,,,-99.99,WeatherLink 5.7,2013-01-09 12:21:00,
2013-01-09 07:30:00,24.8,19.5,30.33,North,-999,0.0,0.0,80,0.00,,,-99.99,WeatherLink 5.7,2013-01-09 12:30:00,
2013-01-09 07:31:00,24.8,19.5,30.35,SSE,157,0.0,2.0,80,0.00,,,-99.99,WeatherLink 5.7,2013-01-09 12:31:00,
2013-01-09 07:40:00,24.6,19.0,30.33,North,-999,0.0,0.0,79,0.00,,,-99.99,WeatherLink 5.7,2013-01-09 12:40:00,
2013-01-09 07:41:00,24.7,19.4,30.35,North,-999,0.0,1.0,80,0.00,,,-99.99,WeatherLink 5.7,2013-01-09 12:41:00,
2013-01-09 07:50:00,24.5,19.2,30.34,North,-999,0.0,0.0,80,0.00,,,-99.99,WeatherLink 5.7,2013-01-09 12:50:00,
2013-01-09 07:51:00,24.7,19.4,30.34,North,-999,0.0,0.0,80,0.00,,,-99.99,WeatherLink 5.7,2013-01-09 12:51:00,
2013-01-09 08:00:00,24.4,19.1,30.33,North,-999,0.0,0.0,80,0.00,,,-99.99,WeatherLink 5.7,2013-01-09 13:00:00,
2013-01-09 08:01:00,24.3,18.7,30.35,SSE,157,0.0,1.0,79,0.00,,,-99.99,WeatherLink 5.7,2013-01-09 13:01:00,
2013-01-09 08:10:00,24.2,18.9,30.32,SSE,157,0.0,1.0,80,0.00,,,-99.99,WeatherLink 5.7,2013-01-09 13:10:00,
2013-01-09 08:11:00,24.0,18.4,30.33,SSE,157,0.0,1.0,79,0.00,,,-99.99,WeatherLink 5.7,2013-01-09 13:11:00,
2013-01-09 08:20:00,24.0,18.7,30.33,North,-999,0.0,0.0,80,0.00,,,-99.99,WeatherLink 5.7,2013-01-09 13:20:00,
2013-01-09 08:21:00,24.5,19.5,30.34,SSE,157,0.0,1.0,81,0.00,,,-99.99,WeatherLink 5.7,2013-01-09 13:21:00,
2013-01-09 08:30:00,24.3,19.3,30.33,North,-999,0.0,0.0,81,0.00,,,-99.99,WeatherLink 5.7,2013-01-09 13:30:00,
2013-01-09 08:31:00,25.6,20.3,30.35,North,-999,0.0,1.0,80,0.00,,,-99.99,WeatherLink 5.7,2013-01-09 13:31:00,
2013-01-09 08:40:00,24.2,18.9,30.32,North,-999,0.0,1.0,80,0.00,,,-99.99,WeatherLink 5.7,2013-01-09 13:40:00,
2013-01-09 08:41:00,26.2,21.2,30.35,North,-999,0.0,0.0,81,0.00,,,-99.99,WeatherLink 5.7,2013-01-09 13:41:00,
2013-01-09 08:50:00,24.0,19.0,30.33,North,-999,0.0,0.0,81,0.00,,,-99.99,WeatherLink 5.7,2013-01-09 13:50:00,
2013-01-09 08:51:00,26.8,21.5,30.35,SSE,157,0.0,1.0,80,0.00,,,-99.99,WeatherLink 5.7,2013-01-09 13:51:00,
2013-01-09 09:00:00,24.5,19.8,30.33,SSE,157,0.0,1.0,82,0.00,,,-99.99,WeatherLink 5.7,2013-01-09 14:00:00,
2013-01-09 09:01:00,27.4,22.0,30.36,North,-999,0.0,0.0,80,0.00,,,-99.99,WeatherLink 5.7,2013-01-09 14:01:00,
2013-01-09 09:10:00,24.7,20.0,30.33,North,-999,0.0,0.0,82,0.00,,,-99.99,WeatherLink 5.7,2013-01-09 14:10:00,
2013-01-09 09:11:00,28.1,22.4,30.35,North,-999,0.0,1.0,79,0.00,,,-99.99,WeatherLink 5.7,2013-01-09 14:11:00,
2013-01-09 09:20:00,24.8,19.8,30.33,North,-999,0.0,1.0,81,0.00,,,-99.99,WeatherLink 5.7,2013-01-09 14:20:00,
2013-01-09 09:21:00,28.9,23.2,30.34,SSE,157,0.0,1.0,79,0.00,,,-99.99,WeatherLink 5.7,2013-01-09 14:21:00,
2013-01-09 09:30:00,24.7,19.7,30.33,North,-999,0.0,0.0,81,0.00,,,-99.99,WeatherLink 5.7,2013-01-09 14:30:00,
2013-01-09 09:31:00,29.7,24.0,30.34,SSE,157,0.0,1.0,79,0.00,,,-99.99,WeatherLink 5.7,2013-01-09 14:31:00,
2013-01-09 09:40:00,24.6,19.6,30.33,SSE,157,0.0,1.0,81,0.00,,,-99.99,WeatherLink 5.7,2013-01-09 14:40:00,
2013-01-09 09:41:00,30.4,24.7,30.33,North,-999,0.0,0.0,79,0.00,,,-99.99,WeatherLink 5.7,2013-01-09 14:41:00,
2013-01-09 09:50:00,24.2,18.9,30.33,SSE,157,0.0,2.0,80,0.00,,,-99.99,WeatherLink 5.7,2013-01-09 14:50:00,
2013-01-09 09:51:00,31.3,24.9,30.33,SSE,157,0.0,1.0,77,0.00,,,-99.99,WeatherLink 5.7,2013-01-09 14:51:00,
2013-01-09 10:00:00,24.2,19.2,30.35,SSE,157,0.0,1.0,81,0.00,,,-99.99,WeatherLink 5.7,2013-01-09 15:00:00,
2013-01-09 10:01:00,32.2,25.8,30.32,North,-999,0.0,0.0,77,0.00,,,-99.99,WeatherLink 5.7,2013-01-09 15:01:00,
2013-01-09 10:10:00,33.4,26.3,30.32,SSE,157,0.0,2.0,75,0.00,,,-99.99,WeatherLink 5.7,2013-01-09 15:10:00,
2013-01-09 10:20:00,24.8,19.5,30.34,SSE,157,0.0,3.0,80,0.00,,,-99.99,WeatherLink 5.7,2013-01-09 15:20:00,
2013-01-09 10:21:00,33.8,26.4,30.30,SSE,157,0.0,1.0,74,0.00,,,-99.99,WeatherLink 5.7,2013-01-09 15:21:00,
2013-01-09 10:30:00,24.8,19.5,30.35,SSE,157,0.0,2.0,80,0.00,,,-99.99,WeatherLink 5.7,2013-01-09 15:30:00,
2013-01-09 10:31:00,34.2,26.4,30.28,SSE,157,0.0,1.0,73,0.00,,,-99.99,WeatherLink 5.7,2013-01-09 15:31:00,
2013-01-09 10:40:00,24.7,19.4,30.35,North,-999,0.0,1.0,80,0.00,,,-99.99,WeatherLink 5.7,2013-01-09 15:40:00,
2013-01-09 10:41:00,35.0,27.2,30.29,South,180,0.0,3.0,73,0.00,,,-99.99,WeatherLink 5.7,2013-01-09 15:41:00,
2013-01-09 10:50:00,24.7,19.4,30.34,North,-999,0.0,0.0,80,0.00,,,-99.99,WeatherLink 5.7,2013-01-09 15:50:00,
2013-01-09 10:51:00,35.6,27.1,30.29,NW,315,1.0,3.0,71,0.00,,,-99.99,WeatherLink 5.7,2013-01-09 15:51:00,
2013-01-09 11:00:00,24.3,18.7,30.35,SSE,157,0.0,1.0,79,0.00,,,-99.99,WeatherLink 5.7,2013-01-09 16:00:00,
2013-01-09 11:01:00,35.9,27.4,30.29,NW,315,0.0,1.0,71,0.00,,,-99.99,WeatherLink 5.7,2013-01-09 16:01:00,
2013-01-09 11:10:00,24.0,18.4,30.33,SSE,157,0.0,1.0,79,0.00,,,-99.99,WeatherLink 5.7,2013-01-09 16:10:00,
2013-01-09 11:11:00,36.4,27.9,30.29,North,-999,0.0,0.0,71,0.00,,,-99.99,WeatherLink 5.7,2013-01-09 16:11:00,
2013-01-09 11:20:00,24.5,19.5,30.34,SSE,157,0.0,1.0,81,0.00,,,-99.99,WeatherLink 5.7,2013-01-09 16:20:00,
2013-01-09 11:21:00,37.3,28.4,30.29,NNW,337,1.0,2.0,70,0.00,,,-99.99,WeatherLink 5.7,2013-01-09 16:21:00,
2013-01-09 11:30:00,25.6,20.3,30.35,North,-999,0.0,1.0,80,0.00,,,-99.99,WeatherLink 5.7,2013-01-09 16:30:00,
2013-01-09 11:31:00,37.4,28.9,30.29,NNW,337,0.0,2.0,71,0.00,,,-99.99,WeatherLink 5.7,2013-01-09 16:31:00,
2013-01-09 11:40:00,26.2,21.2,30.35,North,-999,0.0,0.0,81,0.00,,,-99.99,WeatherLink 5.7,2013-01-09 16:40:00,
2013-01-09 11:41:00,37.2,28.7,30.27,North,-999,0.0,1.0,71,0.00,,,-99.99,WeatherLink 5.7,2013-01-09 16:41:00,
2013-01-09 11:50:00,26.8,21.5,30.35,SSE,157,0.0,1.0,80,0.00,,,-99.99,WeatherLink 5.7,2013-01-09 16:50:00,
2013-01-09 11:51:00,37.4,28.5,30.26,NNW,337,1.0,3.0,70,0.00,,,-99.99,WeatherLink 5.7,2013-01-09 16:51:00,
2013-01-09 12:00:00,27.4,22.0,30.36,North,-999,0.0,0.0,80,0.00,,,-99.99,WeatherLink 5.7,2013-01-09 17:00:00,
2013-01-09 12:01:00,37.4,28.9,30.25,NNW,337,1.0,2.0,71,0.00,,,-99.99,WeatherLink 5.7,2013-01-09 17:01:00,
2013-01-09 12:10:00,28.1,22.4,30.35,North,-999,0.0,1.0,79,0.00,,,-99.99,WeatherLink 5.7,2013-01-09 17:10:00,
2013-01-09 12:11:00,37.5,28.9,30.24,NNW,337,0.0,2.0,71,0.00,,,-99.99,WeatherLink 5.7,2013-01-09 17:11:00,
2013-01-09 12:20:00,28.9,23.2,30.34,SSE,157,0.0,1.0,79,0.00,,,-99.99,WeatherLink 5.7,2013-01-09 17:20:00,
2013-01-09 12:21:00,37.7,29.1,30.24,NNW,337,0.0,2.0,71,0.00,,,-99.99,WeatherLink 5.7,2013-01-09 17:21:00,
2013-01-09 12:30:00,29.7,24.0,30.34,SSE,157,0.0,1.0,79,0.00,,,-99.99,WeatherLink 5.7,2013-01-09 17:30:00,
2013-01-09 12:31:00,37.5,29.3,30.24,NNW,337,1.0,2.0,72,0.00,,,-99.99,WeatherLink 5.7,2013-01-09 17:31:00,
2013-01-09 12:40:00,30.4,24.7,30.33,North,-999,0.0,0.0,79,0.00,,,-99.99,WeatherLink 5.7,2013-01-09 17:40:00,
2013-01-09 12:41:00,37.3,29.1,30.23,NNW,337,1.0,3.0,72,0.00,,,-99.99,WeatherLink 5.7,2013-01-09 17:41:00,
2013-01-09 12:50:00,31.3,24.9,30.33,SSE,157,0.0,1.0,77,0.00,,,-99.99,WeatherLink 5.7,2013-01-09 17:50:00,
2013-01-09 12:51:00,37.1,28.9,30.23,NNW,337,0.0,2.0,72,0.00,,,-99.99,WeatherLink 5.7,2013-01-09 17:51:00,
2013-01-09 13:00:00,32.2,25.8,30.32,North,-999,0.0,0.0,77,0.00,,,-99.99,WeatherLink 5.7,2013-01-09 18:00:00,
2013-01-09 13:01:00,37.3,29.1,30.24,NNW,337,1.0,2.0,72,0.00,,,-99.99,WeatherLink 5.7,2013-01-09 18:01:00,
2013-01-09 13:10:00,33.4,26.3,30.32,SSE,157,0.0,2.0,75,0.00,,,-99.99,WeatherLink 5.7,2013-01-09 18:10:00,
2013-01-09 13:11:00,37.6,29.7,30.23,NNW,337,1.0,3.0,73,0.00,,,-99.99,WeatherLink 5.7,2013-01-09 18:11:00,
2013-01-09 13:20:00,33.8,26.4,30.30,SSE,157,0.0,1.0,74,0.00,,,-99.99,WeatherLink 5.7,2013-01-09 18:20:00,
2013-01-09 13:21:00,38.2,30.3,30.24,East,90,1.0,4.0,73,0.00,,,-99.99,WeatherLink 5.7,2013-01-09 18:21:00,
2013-01-09 13:30:00,34.2,26.4,30.28,SSE,157,0.0,1.0,73,0.00,,,-99.99,WeatherLink 5.7,2013-01-09 18:30:00,
2013-01-09 13:31:00,39.2,30.6,30.24,East,90,0.0,3.0,71,0.00,,,-99.99,WeatherLink 5.7,2013-01-09 18:31:00,
2013-01-09 13:40:00,35.0,27.2,30.29,South,180,0.0,3.0,73,0.00,,,-99.99,WeatherLink 5.7,2013-01-09 18:40:00,
2013-01-09 13:41:00,40.0,31.0,30.24,West,270,1.0,5.0,70,0.00,,,-99.99,WeatherLink 5.7,2013-01-09 18:41:00,
2013-01-09 13:50:00,35.6,27.1,30.29,NW,315,1.0,3.0,71,0.00,,,-99.99,WeatherLink 5.7,2013-01-09 18:50:00,
2013-01-09 13:51:00,40.5,31.1,30.21,East,90,1.0,4.0,69,0.00,,,-99.99,WeatherLink 5.7,2013-01-09 18:51:00,
2013-01-09 14:00:00,35.9,27.4,30.29,NW,315,0.0,1.0,71,0.00,,,-99.99,WeatherLink 5.7,2013-01-09 19:00:00,
2013-01-09 14:01:00,40.7,32.0,30.18,ENE,67,1.0,4.0,71,0.00,,,-99.99,WeatherLink 5.7,2013-01-09 19:01:00,
2013-01-09 14:10:00,36.4,27.9,30.29,North,-999,0.0,0.0,71,0.00,,,-99.99,WeatherLink 5.7,2013-01-09 19:10:00,
2013-01-09 14:11:00,40.9,32.9,30.16,SE,135,2.0,5.0,73,0.00,,,-99.99,WeatherLink 5.7,2013-01-09 19:11:00,
2013-01-09 14:20:00,37.3,28.4,30.29,NNW,337,1.0,2.0,70,0.00,,,-99.99,WeatherLink 5.7,2013-01-09 19:20:00,
2013-01-09 14:21:00,40.5,32.9,30.15,SE,135,1.0,3.0,74,0.00,,,-99.99,WeatherLink 5.7,2013-01-09 19:21:00,
2013-01-09 14:30:00,40.4,32.1,30.15,SE,135,2.0,4.0,72,0.00,,,-99.99,WeatherLink 5.7,2013-01-09 19:30:00,
2013-01-09 14:40:00,40.2,32.2,30.14,SE,135,1.0,3.0,73,0.00,,,-99.99,WeatherLink 5.7,2013-01-09 19:40:00,
2013-01-09 14:50:00,39.6,31.7,30.14,East,90,0.0,3.0,73,0.00,,,-99.99,WeatherLink 5.7,2013-01-09 19:50:00,
2013-01-09 15:00:00,39.3,31.7,30.14,East,90,0.0,3.0,74,0.00,,,-99.99,WeatherLink 5.7,2013-01-09 20:00:00,
2013-01-09 15:10:00,39.1,31.5,30.14,East,90,0.0,2.0,74,0.00,,,-99.99,WeatherLink 5.7,2013-01-09 20:10:00,
2013-01-09 15:20:00,38.8,31.2,30.14,East,90,0.0,1.0,74,0.00,,,-99.99,WeatherLink 5.7,2013-01-09 20:20:00,
2013-01-09 15:30:00,38.8,31.2,30.13,East,90,0.0,1.0,74,0.00,,,-99.99,WeatherLink 5.7,2013-01-09 20:30:00,
2013-01-09 15:40:00,38.8,31.6,30.14,East,90,0.0,1.0,75,0.00,,,-99.99,WeatherLink 5.7,2013-01-09 20:40:00,
2013-01-09 15:50:00,38.8,31.6,30.14,North,-999,0.0,0.0,75,0.00,,,-99.99,WeatherLink 5.7,2013-01-09 20:50:00,
2013-01-09 16:00:00,38.7,31.5,30.13,North,-999,0.0,0.0,75,0.00,,,-99.99,WeatherLink 5.7,2013-01-09 21:00:00,
2013-01-09 16:10:00,38.7,31.5,30.13,East,90,0.0,2.0,75,0.00,,,-99.99,WeatherLink 5.7,2013-01-09 21:10:00,
2013-01-09 16:20:00,38.8,31.6,30.14,East,90,1.0,6.0,75,0.00,,,-99.99,WeatherLink 5.7,2013-01-09 21:20:00,
2013-01-09 16:30:00,39.3,31.7,30.14,North,0,1.0,4.0,74,0.00,,,-99.99,WeatherLink 5.7,2013-01-09 21:30:00,
2013-01-09 16:40:00,39.5,31.9,30.16,North,0,0.0,3.0,74,0.00,,,-99.99,WeatherLink 5.7,2013-01-09 21:40:00,
2013-01-09 16:50:00,39.3,31.7,30.15,ENE,67,1.0,5.0,74,0.00,,,-99.99,WeatherLink 5.7,2013-01-09 21:50:00,
2013-01-09 17:00:00,39.3,31.7,30.16,ESE,112,1.0,4.0,74,0.00,,,-99.99,WeatherLink 5.7,2013-01-09 22:00:00,
2013-01-09 17:10:00,39.3,31.7,30.16,ESE,112,0.0,3.0,74,0.00,,,-99.99,WeatherLink 5.7,2013-01-09 22:10:00,
2013-01-09 17:20:00,39.3,32.0,30.16,ESE,112,1.0,4.0,75,0.00,,,-99.99,WeatherLink 5.7,2013-01-09 22:20:00,
2013-01-09 17:30:00,39.3,32.0,30.15,SE,135,1.0,5.0,75,0.00,,,-99.99,WeatherLink 5.7,2013-01-09 22:30:00,
2013-01-09 17:40:00,38.7,31.8,30.15,NNE,22,0.0,4.0,76,0.00,,,-99.99,WeatherLink 5.7,2013-01-09 22:40:00,
2013-01-09 17:50:00,38.3,31.4,30.16,West,270,1.0,5.0,76,0.00,,,-99.99,WeatherLink 5.7,2013-01-09 22:50:00,
2013-01-09 18:00:00,37.8,31.2,30.17,ENE,67,0.0,3.0,77,0.00,,,-99.99,WeatherLink 5.7,2013-01-09 23:00:00,
2013-01-09 18:10:00,37.8,31.2,30.15,ENE,67,1.0,7.0,77,0.00,,,-99.99,WeatherLink 5.7,2013-01-09 23:10:00,
2013-01-09 18:20:00,38.0,31.1,30.17,East,90,1.0,6.0,76,0.00,,,-99.99,WeatherLink 5.7,2013-01-09 23:20:00,
2013-01-09 18:30:00,38.8,31.2,30.13,East,90,0.0,1.0,74,0.00,,,-99.99,WeatherLink 5.7,2013-01-09 23:30:00,
2013-01-09 18:31:00,37.9,31.0,30.17,ESE,112,1.0,4.0,76,0.00,,,-99.99,WeatherLink 5.7,2013-01-09 23:31:00,
2013-01-09 18:40:00,38.8,31.6,30.14,East,90,0.0,1.0,75,0.00,,,-99.99,WeatherLink 5.7,2013-01-09 23:40:00,
2013-01-09 18:41:00,37.4,30.5,30.17,East,90,0.0,2.0,76,0.00,,,-99.99,WeatherLink 5.7,2013-01-09 23:41:00,
2013-01-09 18:50:00,38.8,31.6,30.14,North,-999,0.0,0.0,75,0.00,,,-99.99,WeatherLink 5.7,2013-01-09 23:50:00,
2013-01-09 18:51:00,36.7,30.5,30.18,South,180,1.0,3.0,78,0.00,,,-99.99,WeatherLink 5.7,2013-01-09 23:51:00,
2013-01-09 19:00:00,38.7,31.5,30.13,North,-999,0.0,0.0,75,0.00,,,-99.99,WeatherLink 5.7,2013-01-10 00:00:00,
2013-01-09 19:01:00,36.4,30.5,30.18,NW,315,1.0,6.0,79,0.00,,,-99.99,WeatherLink 5.7,2013-01-10 00:01:00,
2013-01-09 19:10:00,38.7,31.5,30.13,East,90,0.0,2.0,75,0.00,,,-99.99,WeatherLink 5.7,2013-01-10 00:10:00,
2013-01-09 19:11:00,36.4,30.5,30.18,ENE,67,0.0,3.0,79,0.00,,,-99.99,WeatherLink 5.7,2013-01-10 00:11:00,
2013-01-09 19:20:00,38.8,31.6,30.14,East,90,1.0,6.0,75,0.00,,,-99.99,WeatherLink 5.7,2013-01-10 00:20:00,
2013-01-09 19:21:00,36.3,30.4,30.18,ENE,67,1.0,5.0,79,0.00,,,-99.99,WeatherLink 5.7,2013-01-10 00:21:00,
2013-01-09 19:30:00,39.3,31.7,30.14,North,0,1.0,4.0,74,0.00,,,-99.99,WeatherLink 5.7,2013-01-10 00:30:00,
2013-01-09 19:31:00,36.5,30.6,30.20,North,0,1.0,5.0,79,0.00,,,-99.99,WeatherLink 5.7,2013-01-10 00:31:00,
2013-01-09 19:40:00,39.5,31.9,30.16,North,0,0.0,3.0,74,0.00,,,-99.99,WeatherLink 5.7,2013-01-10 00:40:00,
2013-01-09 19:41:00,36.3,30.4,30.19,WSW,247,1.0,4.0,79,0.00,,,-99.99,WeatherLink 5.7,2013-01-10 00:41:00,
2013-01-09 19:50:00,39.3,31.7,30.15,ENE,67,1.0,5.0,74,0.00,,,-99.99,WeatherLink 5.7,2013-01-10 00:50:00,
2013-01-09 19:51:00,36.0,30.1,30.19,West,270,0.0,2.0,79,0.00,,,-99.99,WeatherLink 5.7,2013-01-10 00:51:00,
2013-01-09 20:00:00,39.3,31.7,30.16,ESE,112,1.0,4.0,74,0.00,,,-99.99,WeatherLink 5.7,2013-01-10 01:00:00,
2013-01-09 20:01:00,35.6,29.7,30.19,WNW,292,0.0,2.0,79,0.00,,,-99.99,WeatherLink 5.7,2013-01-10 01:01:00,
2013-01-09 20:10:00,39.3,31.7,30.16,ESE,112,0.0,3.0,74,0.00,,,-99.99,WeatherLink 5.7,2013-01-10 01:10:00,
2013-01-09 20:11:00,35.4,29.8,30.19,North,0,1.0,4.0,80,0.00,,,-99.99,WeatherLink 5.7,2013-01-10 01:11:00,
2013-01-09 20:20:00,39.3,32.0,30.16,ESE,112,1.0,4.0,75,0.00,,,-99.99,WeatherLink 5.7,2013-01-10 01:20:00,
2013-01-09 20:21:00,35.3,29.7,30.19,North,0,0.0,2.0,80,0.00,,,-99.99,WeatherLink 5.7,2013-01-10 01:21:00,
2013-01-09 20:30:00,39.3,32.0,30.15,SE,135,1.0,5.0,75,0.00,,,-99.99,WeatherLink 5.7,2013-01-10 01:30:00,
2013-01-09 20:31:00,35.1,29.6,30.19,North,0,0.0,2.0,80,0.00,,,-99.99,WeatherLink 5.7,2013-01-10 01:31:00,
2013-01-09 20:40:00,38.7,31.8,30.15,NNE,22,0.0,4.0,76,0.00,,,-99.99,WeatherLink 5.7,2013-01-10 01:40:00,
2013-01-09 20:41:00,35.2,29.6,30.19,East,90,1.0,3.0,80,0.00,,,-99.99,WeatherLink 5.7,2013-01-10 01:41:00,
2013-01-09 20:50:00,38.3,31.4,30.16,West,270,1.0,5.0,76,0.00,,,-99.99,WeatherLink 5.7,2013-01-10 01:50:00,
2013-01-09 20:51:00,35.4,29.8,30.19,WSW,247,0.0,3.0,80,0.00,,,-99.99,WeatherLink 5.7,2013-01-10 01:51:00,
2013-01-09 21:00:00,37.8,31.2,30.17,ENE,67,0.0,3.0,77,0.00,,,-99.99,WeatherLink 5.7,2013-01-10 02:00:00,
2013-01-09 21:01:00,35.4,29.8,30.18,NE,45,0.0,3.0,80,0.00,,,-99.99,WeatherLink 5.7,2013-01-10 02:01:00,
2013-01-09 21:10:00,37.8,31.2,30.15,ENE,67,1.0,7.0,77,0.00,,,-99.99,WeatherLink 5.7,2013-01-10 02:10:00,
2013-01-09 21:11:00,35.4,29.5,30.18,NE,45,0.0,4.0,79,0.00,,,-99.99,WeatherLink 5.7,2013-01-10 02:11:00,
2013-01-09 21:20:00,38.0,31.1,30.17,East,90,1.0,6.0,76,0.00,,,-99.99,WeatherLink 5.7,2013-01-10 02:20:00,
2013-01-09 21:21:00,35.6,29.4,30.18,North,0,1.0,4.0,78,0.00,,,-99.99,WeatherLink 5.7,2013-01-10 02:21:00,
2013-01-09 21:30:00,37.9,31.0,30.17,ESE,112,1.0,4.0,76,0.00,,,-99.99,WeatherLink 5.7,2013-01-10 02:30:00,
2013-01-09 21:31:00,35.8,29.6,30.19,ENE,67,1.0,3.0,78,0.00,,,-99.99,WeatherLink 5.7,2013-01-10 02:31:00,
2013-01-09 21:40:00,37.4,30.5,30.17,East,90,0.0,2.0,76,0.00,,,-99.99,WeatherLink 5.7,2013-01-10 02:40:00,
2013-01-09 21:41:00,36.1,29.3,30.19,NNE,22,0.0,3.0,76,0.00,,,-99.99,WeatherLink 5.7,2013-01-10 02:41:00,
2013-01-09 21:50:00,36.7,30.5,30.18,South,180,1.0,3.0,78,0.00,,,-99.99,WeatherLink 5.7,2013-01-10 02:50:00,
2013-01-09 21:51:00,36.0,29.2,30.19,West,270,1.0,3.0,76,0.00,,,-99.99,WeatherLink 5.7,2013-01-10 02:51:00,
2013-01-09 22:00:00,36.4,30.5,30.18,NW,315,1.0,6.0,79,0.00,,,-99.99,WeatherLink 5.7,2013-01-10 03:00:00,
2013-01-09 22:01:00,36.2,29.4,30.18,WNW,292,1.0,3.0,76,0.00,,,-99.99,WeatherLink 5.7,2013-01-10 03:01:00,
2013-01-09 22:10:00,36.4,30.5,30.18,ENE,67,0.0,3.0,79,0.00,,,-99.99,WeatherLink 5.7,2013-01-10 03:10:00,
2013-01-09 22:11:00,36.0,29.2,30.19,West,270,1.0,3.0,76,0.00,,,-99.99,WeatherLink 5.7,2013-01-10 03:11:00,
2013-01-09 22:20:00,36.3,30.4,30.18,ENE,67,1.0,5.0,79,0.00,,,-99.99,WeatherLink 5.7,2013-01-10 03:20:00,
2013-01-09 22:21:00,35.8,29.0,30.19,NNE,22,1.0,4.0,76,0.00,,,-99.99,WeatherLink 5.7,2013-01-10 03:21:00,
2013-01-09 22:30:00,36.5,30.6,30.20,North,0,1.0,5.0,79,0.00,,,-99.99,WeatherLink 5.7,2013-01-10 03:30:00,
2013-01-09 22:31:00,35.7,28.9,30.20,NNW,337,1.0,3.0,76,0.00,,,-99.99,WeatherLink 5.7,2013-01-10 03:31:00,
2013-01-09 22:40:00,36.3,30.4,30.19,WSW,247,1.0,4.0,79,0.00,,,-99.99,WeatherLink 5.7,2013-01-10 03:40:00,
2013-01-09 22:41:00,35.5,28.7,30.20,NW,315,1.0,4.0,76,0.00,,,-99.99,WeatherLink 5.7,2013-01-10 03:41:00,
2013-01-09 22:50:00,36.0,30.1,30.19,West,270,0.0,2.0,79,0.00,,,-99.99,WeatherLink 5.7,2013-01-10 03:50:00,
2013-01-09 22:51:00,35.7,28.6,30.20,NW,315,1.0,4.0,75,0.00,,,-99.99,WeatherLink 5.7,2013-01-10 03:51:00,
2013-01-09 23:00:00,35.6,29.7,30.19,WNW,292,0.0,2.0,79,0.00,,,-99.99,WeatherLink 5.7,2013-01-10 04:00:00,
2013-01-09 23:01:00,35.7,28.6,30.20,NNW,337,2.0,4.0,75,0.00,,,-99.99,WeatherLink 5.7,2013-01-10 04:01:00,
2013-01-09 23:10:00,35.4,29.8,30.19,North,0,1.0,4.0,80,0.00,,,-99.99,WeatherLink 5.7,2013-01-10 04:10:00,
2013-01-09 23:11:00,35.8,28.3,30.21,NW,315,2.0,5.0,74,0.00,,,-99.99,WeatherLink 5.7,2013-01-10 04:11:00,
2013-01-09 23:20:00,35.3,29.7,30.19,North,0,0.0,2.0,80,0.00,,,-99.99,WeatherLink 5.7,2013-01-10 04:20:00,
2013-01-09 23:21:00,35.9,28.4,30.21,NNW,337,1.0,4.0,74,0.00,,,-99.99,WeatherLink 5.7,2013-01-10 04:21:00,
2013-01-09 23:30:00,35.1,29.6,30.19,North,0,0.0,2.0,80,0.00,,,-99.99,WeatherLink 5.7,2013-01-10 04:30:00,
2013-01-09 23:31:00,35.9,28.4,30.20,NNW,337,2.0,4.0,74,0.00,,,-99.99,WeatherLink 5.7,2013-01-10 04:31:00,
2013-01-09 23:40:00,35.2,29.6,30.19,East,90,1.0,3.0,80,0.00,,,-99.99,WeatherLink 5.7,2013-01-10 04:40:00,
2013-01-09 23:41:00,35.9,28.1,30.21,NW,315,1.0,4.0,73,0.00,,,-99.99,WeatherLink 5.7,2013-01-10 04:41:00,
2013-01-09 23:50:00,35.4,29.8,30.19,WSW,247,0.0,3.0,80,0.00,,,-99.99,WeatherLink 5.7,2013-01-10 04:50:00,
2013-01-09 23:51:00,35.7,27.9,30.22,North,0,1.0,4.0,73,0.00,,,-99.99,WeatherLink 5.7,2013-01-10 04:51:00,